createdAt,value
2023-04-25T00:00:36.260Z,994.89
2023-04-25T00:01:36.224Z,994.92
2023-04-25T00:02:36.410Z,994.90
2023-04-25T00:03:36.427Z,994.87
2023-04-25T00:04:36.639Z,994.93
2023-04-25T00:05:36.197Z,994.87
2023-04-25T00:06:36.160Z,994.91
2023-04-25T00:07:36.192Z,994.93
2023-04-25T00:08:36.147Z,994.91
2023-04-25T00:09:36.128Z,994.85
2023-04-25T00:10:36.110Z,994.93
2023-04-25T00:11:36.106Z,994.91
2023-04-25T00:12:36.078Z,994.91
2023-04-25T00:13:36.118Z,994.91
2023-04-25T00:14:36.061Z,994.91
2023-04-25T00:15:36.047Z,994.94
2023-04-25T00:16:36.171Z,994.95
2023-04-25T00:17:36.099Z,994.87
2023-04-25T00:18:36.029Z,994.87
2023-04-25T00:19:36.050Z,994.92
2023-04-25T00:20:35.998Z,994.92
2023-04-25T00:21:36.001Z,994.90
2023-04-25T00:22:35.976Z,994.94
2023-04-25T00:23:35.976Z,994.93
2023-04-25T00:24:35.982Z,994.97
2023-04-25T00:25:35.961Z,994.98
2023-04-25T00:26:35.927Z,994.97
2023-04-25T00:27:35.917Z,994.94
2023-04-25T00:28:35.914Z,994.94
2023-04-25T00:29:35.895Z,994.94
2023-04-25T00:30:35.904Z,994.92
2023-04-25T00:31:36.017Z,994.90
2023-04-25T00:32:35.892Z,994.90
2023-04-25T00:33:35.895Z,994.88
2023-04-25T00:34:35.841Z,994.91
2023-04-25T00:35:35.854Z,994.90
2023-04-25T00:36:35.846Z,994.85
2023-04-25T00:37:35.835Z,994.88
2023-04-25T00:38:35.815Z,994.87
2023-04-25T00:39:35.798Z,994.90
2023-04-25T00:40:35.789Z,994.84
2023-04-25T00:41:35.772Z,994.90
2023-04-25T00:42:35.753Z,994.85
2023-04-25T00:43:35.755Z,994.85
2023-04-25T00:44:35.726Z,994.86
2023-04-25T00:45:35.874Z,994.89
2023-04-25T00:46:35.725Z,994.92
2023-04-25T00:47:35.730Z,994.84
2023-04-25T00:48:35.694Z,994.85
2023-04-25T00:49:35.702Z,994.84
2023-04-25T00:50:35.680Z,994.86
2023-04-25T00:51:35.686Z,994.89
2023-04-25T00:52:35.662Z,994.86
2023-04-25T00:53:35.632Z,994.80
2023-04-25T00:54:35.616Z,994.77
2023-04-25T00:55:35.656Z,994.81
2023-04-25T00:56:35.599Z,994.83
2023-04-25T00:57:35.611Z,994.83
2023-04-25T00:58:35.576Z,994.83
2023-04-25T00:59:35.568Z,994.83
2023-04-25T01:00:35.569Z,994.81
2023-04-25T01:01:35.563Z,994.81
2023-04-25T01:02:35.682Z,994.82
2023-04-25T01:03:35.680Z,994.80
2023-04-25T01:04:35.548Z,994.78
2023-04-25T01:05:35.532Z,994.78
2023-04-25T01:06:35.491Z,994.78
2023-04-25T01:07:35.486Z,994.79
2023-04-25T01:08:35.470Z,994.78
2023-04-25T01:09:35.472Z,994.80
2023-04-25T01:10:35.466Z,994.84
2023-04-25T01:11:35.441Z,994.83
2023-04-25T01:12:35.467Z,994.79
2023-04-25T01:13:35.432Z,994.86
2023-04-25T01:14:35.406Z,994.84
2023-04-25T01:15:35.394Z,994.80
2023-04-25T01:16:35.426Z,994.81
2023-04-25T01:17:35.420Z,994.82
2023-04-25T01:18:35.394Z,994.84
2023-04-25T01:19:35.353Z,994.83
2023-04-25T01:20:35.344Z,994.81
2023-04-25T01:21:35.367Z,994.82
2023-04-25T01:22:35.322Z,994.82
2023-04-25T01:23:35.310Z,994.79
2023-04-25T01:24:35.317Z,994.81
2023-04-25T01:25:35.369Z,994.84
2023-04-25T01:26:35.269Z,994.89
2023-04-25T01:27:35.264Z,994.82
2023-04-25T01:28:35.259Z,994.87
2023-04-25T01:29:35.241Z,994.85
2023-04-25T01:30:35.224Z,994.90
2023-04-25T01:31:35.275Z,994.88
2023-04-25T01:32:35.232Z,994.88
2023-04-25T01:33:35.199Z,994.83
2023-04-25T01:34:35.202Z,994.96
2023-04-25T01:35:35.194Z,994.93
2023-04-25T01:36:35.160Z,994.98
2023-04-25T01:37:35.236Z,995.02
2023-04-25T01:38:35.143Z,994.96
2023-04-25T01:39:35.130Z,994.99
2023-04-25T01:40:35.113Z,994.98
2023-04-25T01:41:35.112Z,994.98
2023-04-25T01:42:35.113Z,994.97
2023-04-25T01:43:35.112Z,994.97
2023-04-25T01:44:35.073Z,994.97
2023-04-25T01:45:35.107Z,994.98
2023-04-25T01:46:35.090Z,995.01
2023-04-25T01:47:35.080Z,995.03
2023-04-25T01:48:35.044Z,994.99
2023-04-25T01:49:35.032Z,995.03
2023-04-25T01:50:35.039Z,994.98
2023-04-25T01:51:35.001Z,995.00
2023-04-25T01:52:34.999Z,994.99
2023-04-25T01:53:35.013Z,994.99
2023-04-25T01:54:34.982Z,994.99
2023-04-25T01:55:34.967Z,994.98
2023-04-25T01:56:34.957Z,995.05
2023-04-25T01:57:34.963Z,995.00
2023-04-25T01:58:34.949Z,995.07
2023-04-25T01:59:34.990Z,994.99
2023-04-25T02:00:34.901Z,995.03
2023-04-25T02:01:34.937Z,995.03
2023-04-25T02:02:35.118Z,995.03
2023-04-25T02:03:35.055Z,995.00
2023-04-25T02:04:35.024Z,995.01
2023-04-25T02:05:34.861Z,995.04
2023-04-25T02:06:34.849Z,995.06
2023-04-25T02:07:34.837Z,995.08
2023-04-25T02:08:34.861Z,995.07
2023-04-25T02:09:34.825Z,995.08
2023-04-25T02:10:34.816Z,995.08
2023-04-25T02:11:34.798Z,995.12
2023-04-25T02:12:34.881Z,995.07
2023-04-25T02:13:34.796Z,995.09
2023-04-25T02:14:34.754Z,995.07
2023-04-25T02:15:34.798Z,995.03
2023-04-25T02:16:34.859Z,995.06
2023-04-25T02:17:34.725Z,995.02
2023-04-25T02:18:34.717Z,995.04
2023-04-25T02:19:34.808Z,995.04
2023-04-25T02:20:34.693Z,995.04
2023-04-25T02:21:34.697Z,995.03
2023-04-25T02:22:34.683Z,995.04
2023-04-25T02:23:34.651Z,995.03
2023-04-25T02:24:34.677Z,995.02
2023-04-25T02:25:34.671Z,994.99
2023-04-25T02:26:34.642Z,995.02
2023-04-25T02:27:34.621Z,995.05
2023-04-25T02:28:34.628Z,995.07
2023-04-25T02:29:34.620Z,995.11
2023-04-25T02:30:34.625Z,995.09
2023-04-25T02:31:34.660Z,995.12
2023-04-25T02:32:34.609Z,995.18
2023-04-25T02:33:34.609Z,995.13
2023-04-25T02:34:34.563Z,995.15
2023-04-25T02:35:34.604Z,995.20
2023-04-25T02:36:34.539Z,995.20
2023-04-25T02:37:34.522Z,995.16
2023-04-25T02:38:34.521Z,995.22
2023-04-25T02:39:34.481Z,995.20
2023-04-25T02:40:34.481Z,995.15
2023-04-25T02:41:34.481Z,995.15
2023-04-25T02:42:34.534Z,995.20
2023-04-25T02:43:34.453Z,995.16
2023-04-25T02:44:34.436Z,995.17
2023-04-25T02:45:34.428Z,995.18
2023-04-25T02:46:39.524Z,995.19
2023-04-25T02:47:34.468Z,995.23
2023-04-25T02:48:34.429Z,995.20
2023-04-25T02:49:34.426Z,995.17
2023-04-25T02:50:34.359Z,995.17
2023-04-25T02:51:34.394Z,995.24
2023-04-25T02:52:34.336Z,995.18
2023-04-25T02:53:34.330Z,995.17
2023-04-25T02:54:34.343Z,995.18
2023-04-25T02:55:34.345Z,995.18
2023-04-25T02:56:34.304Z,995.19
2023-04-25T02:57:34.315Z,995.19
2023-04-25T02:58:34.291Z,995.16
2023-04-25T02:59:34.294Z,995.15
2023-04-25T03:00:34.282Z,995.19
2023-04-25T03:01:34.257Z,995.20
2023-04-25T03:02:34.277Z,995.19
2023-04-25T03:03:34.300Z,995.18
2023-04-25T03:04:34.289Z,995.23
2023-04-25T03:05:34.217Z,995.24
2023-04-25T03:06:34.230Z,995.24
2023-04-25T03:07:34.184Z,995.20
2023-04-25T03:08:34.166Z,995.18
2023-04-25T03:09:34.163Z,995.23
2023-04-25T03:10:34.145Z,995.25
2023-04-25T03:11:34.150Z,995.23
2023-04-25T03:12:34.137Z,995.25
2023-04-25T03:13:34.127Z,995.24
2023-04-25T03:14:34.110Z,995.25
2023-04-25T03:15:34.111Z,995.26
2023-04-25T03:16:34.122Z,995.27
2023-04-25T03:17:34.168Z,995.28
2023-04-25T03:18:34.067Z,995.17
2023-04-25T03:19:34.072Z,995.21
2023-04-25T03:20:34.080Z,995.17
2023-04-25T03:21:34.023Z,995.19
2023-04-25T03:22:34.061Z,995.18
2023-04-25T03:23:34.023Z,995.18
2023-04-25T03:24:34.002Z,995.23
2023-04-25T03:25:34.020Z,995.17
2023-04-25T03:26:33.987Z,995.21
2023-04-25T03:27:33.961Z,995.18
2023-04-25T03:28:33.966Z,995.20
2023-04-25T03:29:33.955Z,995.19
2023-04-25T03:30:33.930Z,995.17
2023-04-25T03:31:34.110Z,995.20
2023-04-25T03:32:33.958Z,995.21
2023-04-25T03:33:33.894Z,995.20
2023-04-25T03:34:33.882Z,995.18
2023-04-25T03:35:33.877Z,995.16
2023-04-25T03:36:33.884Z,995.17
2023-04-25T03:37:33.870Z,995.17
2023-04-25T03:38:33.849Z,995.22
2023-04-25T03:39:33.837Z,995.19
2023-04-25T03:40:33.829Z,995.20
2023-04-25T03:41:33.830Z,995.27
2023-04-25T03:42:33.818Z,995.24
2023-04-25T03:43:33.819Z,995.24
2023-04-25T03:44:33.783Z,995.26
2023-04-25T03:45:33.869Z,995.26
2023-04-25T03:46:33.800Z,995.22
2023-04-25T03:47:33.815Z,995.25
2023-04-25T03:48:33.742Z,995.24
2023-04-25T03:49:33.745Z,995.30
2023-04-25T03:50:33.713Z,995.27
2023-04-25T03:51:33.735Z,995.28
2023-04-25T03:52:33.693Z,995.30
2023-04-25T03:53:33.704Z,995.34
2023-04-25T03:54:33.676Z,995.30
2023-04-25T03:55:33.665Z,995.28
2023-04-25T03:56:33.693Z,995.33
2023-04-25T03:57:33.672Z,995.36
2023-04-25T03:58:33.626Z,995.36
2023-04-25T03:59:33.635Z,995.37
2023-04-25T04:00:33.610Z,995.35
2023-04-25T04:01:33.610Z,995.36
2023-04-25T04:02:33.777Z,995.34
2023-04-25T04:03:33.972Z,995.41
2023-04-25T04:04:33.960Z,995.39
2023-04-25T04:05:33.684Z,995.37
2023-04-25T04:06:33.541Z,995.36
2023-04-25T04:07:33.528Z,995.38
2023-04-25T04:08:33.532Z,995.42
2023-04-25T04:09:33.529Z,995.39
2023-04-25T04:10:33.504Z,995.39
2023-04-25T04:11:33.499Z,995.40
2023-04-25T04:12:33.474Z,995.42
2023-04-25T04:13:33.474Z,995.42
2023-04-25T04:14:33.473Z,995.47
2023-04-25T04:15:33.482Z,995.43
2023-04-25T04:16:34.541Z,995.45
2023-04-25T04:17:33.454Z,995.48
2023-04-25T04:18:33.416Z,995.47
2023-04-25T04:19:33.401Z,995.49
2023-04-25T04:20:33.437Z,995.47
2023-04-25T04:21:33.378Z,995.44
2023-04-25T04:22:33.388Z,995.50
2023-04-25T04:23:33.351Z,995.53
2023-04-25T04:24:33.345Z,995.53
2023-04-25T04:25:33.366Z,995.52
2023-04-25T04:26:33.345Z,995.55
2023-04-25T04:27:33.345Z,995.55
2023-04-25T04:28:33.301Z,995.59
2023-04-25T04:29:33.308Z,995.58
2023-04-25T04:30:33.288Z,995.62
2023-04-25T04:31:33.334Z,995.55
2023-04-25T04:32:33.329Z,995.62
2023-04-25T04:33:33.267Z,995.60
2023-04-25T04:34:33.258Z,995.60
2023-04-25T04:35:33.226Z,995.59
2023-04-25T04:36:33.226Z,995.59
2023-04-25T04:37:33.201Z,995.57
2023-04-25T04:38:33.212Z,995.57
2023-04-25T04:39:33.199Z,995.60
2023-04-25T04:40:33.200Z,995.58
2023-04-25T04:41:33.161Z,995.60
2023-04-25T04:42:33.181Z,995.66
2023-04-25T04:43:33.147Z,995.67
2023-04-25T04:44:33.145Z,995.70
2023-04-25T04:45:33.114Z,995.73
2023-04-25T04:46:33.190Z,995.71
2023-04-25T04:47:33.132Z,995.72
2023-04-25T04:48:33.088Z,995.72
2023-04-25T04:49:33.091Z,995.74
2023-04-25T04:50:33.081Z,995.69
2023-04-25T04:51:33.076Z,995.71
2023-04-25T04:52:33.047Z,995.71
2023-04-25T04:53:33.048Z,995.78
2023-04-25T04:54:33.068Z,995.76
2023-04-25T04:55:33.011Z,995.73
2023-04-25T04:56:33.038Z,995.75
2023-04-25T04:57:33.005Z,995.78
2023-04-25T04:58:32.978Z,995.82
2023-04-25T04:59:32.970Z,995.80
2023-04-25T05:00:33.017Z,995.79
2023-04-25T05:01:32.941Z,995.78
2023-04-25T05:02:33.068Z,995.84
2023-04-25T05:03:33.129Z,995.85
2023-04-25T05:04:32.958Z,995.83
2023-04-25T05:05:40.469Z,995.86
2023-04-25T05:06:32.899Z,995.85
2023-04-25T05:07:32.890Z,995.82
2023-04-25T05:08:32.899Z,995.87
2023-04-25T05:09:32.886Z,995.84
2023-04-25T05:10:32.862Z,995.84
2023-04-25T05:11:32.836Z,995.84
2023-04-25T05:12:33.710Z,995.87
2023-04-25T05:13:32.825Z,995.86
2023-04-25T05:14:32.828Z,995.88
2023-04-25T05:15:32.828Z,995.91
2023-04-25T05:16:32.834Z,995.90
2023-04-25T05:17:32.848Z,995.84
2023-04-25T05:18:32.761Z,995.95
2023-04-25T05:19:32.769Z,995.95
2023-04-25T05:20:32.749Z,995.96
2023-04-25T05:21:32.769Z,995.98
2023-04-25T05:22:32.741Z,995.98
2023-04-25T05:23:33.450Z,995.99
2023-04-25T05:24:32.710Z,996.01
2023-04-25T05:25:32.702Z,996.01
2023-04-25T05:26:32.682Z,996.04
2023-04-25T05:27:32.732Z,995.96
2023-04-25T05:28:32.669Z,996.03
2023-04-25T05:29:32.666Z,996.04
2023-04-25T05:30:32.641Z,996.02
2023-04-25T05:31:32.681Z,996.05
2023-04-25T05:32:32.660Z,996.04
2023-04-25T05:33:32.690Z,996.07
2023-04-25T05:34:32.607Z,996.04
2023-04-25T05:35:32.705Z,996.06
2023-04-25T05:36:32.566Z,996.11
2023-04-25T05:37:32.597Z,996.10
2023-04-25T05:38:34.625Z,996.09
2023-04-25T05:39:32.569Z,996.08
2023-04-25T05:40:32.567Z,996.07
2023-04-25T05:41:32.521Z,996.09
2023-04-25T05:42:32.504Z,996.14
2023-04-25T05:43:32.491Z,996.10
2023-04-25T05:44:32.513Z,996.11
2023-04-25T05:45:32.502Z,996.14
2023-04-25T05:46:32.692Z,996.16
2023-04-25T05:47:32.525Z,996.17
2023-04-25T05:48:32.449Z,996.16
2023-04-25T05:49:32.436Z,996.16
2023-04-25T05:50:32.417Z,996.19
2023-04-25T05:51:32.420Z,996.21
2023-04-25T05:52:32.397Z,996.17
2023-04-25T05:53:32.428Z,996.18
2023-04-25T05:54:32.374Z,996.19
2023-04-25T05:55:32.351Z,996.17
2023-04-25T05:56:32.349Z,996.24
2023-04-25T05:57:32.378Z,996.23
2023-04-25T05:58:32.331Z,996.25
2023-04-25T05:59:32.343Z,996.25
2023-04-25T06:00:32.345Z,996.29
2023-04-25T06:01:32.307Z,996.27
2023-04-25T06:02:32.496Z,996.30
2023-04-25T06:03:32.579Z,996.35
2023-04-25T06:04:32.494Z,996.35
2023-04-25T06:05:32.421Z,996.35
2023-04-25T06:06:32.266Z,996.33
2023-04-25T06:07:32.229Z,996.34
2023-04-25T06:08:32.230Z,996.38
2023-04-25T06:09:32.226Z,996.35
2023-04-25T06:10:32.206Z,996.40
2023-04-25T06:11:32.238Z,996.43
2023-04-25T06:12:32.186Z,996.40
2023-04-25T06:13:32.185Z,996.44
2023-04-25T06:14:32.166Z,996.42
2023-04-25T06:15:32.184Z,996.46
2023-04-25T06:16:32.321Z,996.42
2023-04-25T06:17:32.182Z,996.48
2023-04-25T06:18:32.135Z,996.47
2023-04-25T06:19:32.096Z,996.45
2023-04-25T06:20:32.131Z,996.46
2023-04-25T06:21:32.071Z,996.46
2023-04-25T06:22:32.078Z,996.47
2023-04-25T06:23:32.095Z,996.53
2023-04-25T06:24:32.044Z,996.48
2023-04-25T06:25:32.046Z,996.50
2023-04-25T06:26:32.023Z,996.45
2023-04-25T06:27:32.069Z,996.47
2023-04-25T06:28:32.032Z,996.43
2023-04-25T06:29:31.997Z,996.46
2023-04-25T06:30:32.000Z,996.46
2023-04-25T06:31:31.993Z,996.49
2023-04-25T06:32:32.028Z,996.47
2023-04-25T06:33:31.963Z,996.49
2023-04-25T06:34:31.932Z,996.55
2023-04-25T06:35:31.927Z,996.51
2023-04-25T06:36:31.922Z,996.52
2023-04-25T06:37:31.909Z,996.52
2023-04-25T06:38:31.934Z,996.56
2023-04-25T06:39:31.883Z,996.52
2023-04-25T06:40:31.872Z,996.56
2023-04-25T06:41:31.866Z,996.54
2023-04-25T06:42:31.871Z,996.53
2023-04-25T06:43:31.855Z,996.55
2023-04-25T06:44:31.902Z,996.54
2023-04-25T06:45:31.862Z,996.55
2023-04-25T06:46:31.826Z,996.59
2023-04-25T06:47:31.824Z,996.55
2023-04-25T06:48:31.806Z,996.58
2023-04-25T06:49:31.841Z,996.55
2023-04-25T06:50:31.775Z,996.63
2023-04-25T06:51:31.798Z,996.60
2023-04-25T06:52:31.781Z,996.59
2023-04-25T06:53:31.731Z,996.61
2023-04-25T06:54:31.715Z,996.64
2023-04-25T06:55:31.720Z,996.66
2023-04-25T06:56:31.706Z,996.65
2023-04-25T06:57:31.697Z,996.66
2023-04-25T06:58:31.712Z,996.66
2023-04-25T06:59:31.673Z,996.70
2023-04-25T07:00:31.739Z,996.65
2023-04-25T07:01:31.840Z,996.68
2023-04-25T07:02:31.731Z,996.71
2023-04-25T07:03:31.805Z,996.72
2023-04-25T07:04:31.902Z,996.74
2023-04-25T07:05:31.635Z,996.72
2023-04-25T07:06:31.611Z,996.72
2023-04-25T07:07:31.596Z,996.71
2023-04-25T07:08:31.568Z,996.68
2023-04-25T07:09:31.548Z,996.71
2023-04-25T07:10:31.616Z,996.73
2023-04-25T07:11:31.552Z,996.70
2023-04-25T07:12:31.551Z,996.71
2023-04-25T07:13:31.605Z,996.66
2023-04-25T07:14:31.519Z,996.65
2023-04-25T07:15:31.510Z,996.65
2023-04-25T07:16:31.525Z,996.74
2023-04-25T07:17:31.552Z,996.68
2023-04-25T07:18:31.482Z,996.73
2023-04-25T07:19:31.588Z,996.71
2023-04-25T07:20:31.430Z,996.76
2023-04-25T07:21:31.443Z,996.71
2023-04-25T07:22:31.432Z,996.70
2023-04-25T07:23:31.407Z,996.78
2023-04-25T07:24:31.396Z,996.76
2023-04-25T07:25:31.382Z,996.69
2023-04-25T07:26:31.428Z,996.72
2023-04-25T07:27:31.360Z,996.73
2023-04-25T07:28:31.353Z,996.74
2023-04-25T07:29:31.422Z,996.74
2023-04-25T07:30:31.353Z,996.72
2023-04-25T07:31:31.370Z,996.80
2023-04-25T07:32:31.353Z,996.77
2023-04-25T07:33:31.316Z,996.81
2023-04-25T07:34:31.304Z,996.77
2023-04-25T07:35:31.312Z,996.76
2023-04-25T07:36:31.262Z,996.83
2023-04-25T07:37:31.265Z,996.80
2023-04-25T07:38:31.272Z,996.81
2023-04-25T07:39:31.243Z,996.78
2023-04-25T07:40:31.245Z,996.77
2023-04-25T07:41:31.258Z,996.76
2023-04-25T07:42:31.206Z,996.73
2023-04-25T07:43:31.181Z,996.82
2023-04-25T07:44:31.171Z,996.84
2023-04-25T07:45:31.262Z,996.84
2023-04-25T07:46:31.174Z,996.88
2023-04-25T07:47:31.220Z,996.86
2023-04-25T07:48:31.171Z,996.82
2023-04-25T07:49:31.125Z,996.83
2023-04-25T07:50:31.141Z,996.86
2023-04-25T07:51:31.101Z,996.90
2023-04-25T07:52:31.095Z,996.83
2023-04-25T07:53:31.097Z,996.86
2023-04-25T07:54:31.080Z,996.89
2023-04-25T07:55:31.083Z,996.88
2023-04-25T07:56:41.577Z,996.94
2023-04-25T07:57:32.120Z,996.93
2023-04-25T07:58:31.054Z,996.92
2023-04-25T07:59:31.033Z,996.95
2023-04-25T08:00:30.996Z,996.94
2023-04-25T08:01:31.035Z,996.98
2023-04-25T08:02:31.040Z,997.00
2023-04-25T08:03:31.246Z,997.02
2023-04-25T08:04:31.068Z,997.02
2023-04-25T08:05:31.016Z,997.04
2023-04-25T08:06:31.051Z,997.05
2023-04-25T08:07:30.948Z,997.12
2023-04-25T08:08:30.931Z,997.14
2023-04-25T08:09:30.973Z,997.11
2023-04-25T08:10:30.940Z,997.12
2023-04-25T08:11:30.888Z,997.12
2023-04-25T08:12:30.916Z,997.17
2023-04-25T08:13:30.920Z,997.17
2023-04-25T08:14:30.848Z,997.17
2023-04-25T08:15:30.939Z,997.19
2023-04-25T08:16:30.993Z,997.24
2023-04-25T08:17:30.848Z,997.26
2023-04-25T08:18:30.801Z,997.29
2023-04-25T08:19:30.936Z,997.32
2023-04-25T08:20:30.791Z,997.34
2023-04-25T08:21:30.785Z,997.37
2023-04-25T08:22:30.778Z,997.38
2023-04-25T08:23:30.781Z,997.39
2023-04-25T08:24:30.742Z,997.39
2023-04-25T08:25:30.844Z,997.42
2023-04-25T08:26:30.751Z,997.43
2023-04-25T08:27:30.705Z,997.41
2023-04-25T08:28:30.709Z,997.41
2023-04-25T08:29:30.687Z,997.47
2023-04-25T08:30:30.756Z,997.49
2023-04-25T08:31:30.702Z,997.49
2023-04-25T08:32:31.071Z,997.50
2023-04-25T08:33:30.671Z,997.48
2023-04-25T08:34:30.638Z,997.48
2023-04-25T08:35:30.873Z,997.49
2023-04-25T08:36:39.456Z,997.55
2023-04-25T08:37:31.594Z,997.51
2023-04-25T08:38:30.610Z,997.60
2023-04-25T08:39:30.652Z,997.64
2023-04-25T08:40:30.565Z,997.63
2023-04-25T08:41:30.597Z,997.67
2023-04-25T08:42:30.732Z,997.73
2023-04-25T08:43:30.811Z,997.73
2023-04-25T08:44:30.527Z,997.68
2023-04-25T08:45:30.559Z,997.72
2023-04-25T08:46:30.636Z,997.81
2023-04-25T08:47:30.570Z,997.81
2023-04-25T08:48:30.513Z,997.82
2023-04-25T08:49:30.508Z,997.82
2023-04-25T08:50:30.522Z,997.84
2023-04-25T08:51:30.474Z,997.86
2023-04-25T08:52:30.660Z,997.82
2023-04-25T08:53:30.929Z,997.91
2023-04-25T08:54:35.686Z,997.90
2023-04-25T08:55:31.489Z,997.95
2023-04-25T08:56:31.109Z,998.02
2023-04-25T08:57:30.427Z,998.01
2023-04-25T08:58:30.449Z,998.02
2023-04-25T08:59:30.401Z,998.05
2023-04-25T09:00:30.710Z,998.05
2023-04-25T09:01:30.457Z,998.07
2023-04-25T09:02:30.488Z,998.06
2023-04-25T09:03:30.791Z,998.15
2023-04-25T09:04:30.284Z,998.11
2023-04-25T09:05:30.421Z,998.16
2023-04-25T09:06:30.275Z,998.20
2023-04-25T09:07:30.256Z,998.17
2023-04-25T09:08:30.240Z,998.15
2023-04-25T09:09:30.269Z,998.18
2023-04-25T09:11:30.215Z,998.20
2023-04-25T09:12:30.227Z,998.22
2023-04-25T09:13:30.189Z,998.21
2023-04-25T09:14:30.179Z,998.25
2023-04-25T09:15:30.218Z,998.28
2023-04-25T09:16:30.184Z,998.25
2023-04-25T09:17:30.228Z,998.31
2023-04-25T09:18:30.719Z,998.29
2023-04-25T09:19:39.539Z,998.33
2023-04-25T09:20:31.795Z,998.28
2023-04-25T09:21:30.163Z,998.24
2023-04-25T09:22:30.084Z,998.24
2023-04-25T09:23:30.088Z,998.33
2023-04-25T09:24:30.082Z,998.31
2023-04-25T09:25:30.056Z,998.26
2023-04-25T09:26:30.068Z,998.34
2023-04-25T09:27:30.050Z,998.26
2023-04-25T09:28:31.050Z,998.37
2023-04-25T09:29:30.023Z,998.27
2023-04-25T09:30:30.003Z,998.24
2023-04-25T09:31:30.037Z,998.25
2023-04-25T09:32:30.206Z,998.26
2023-04-25T09:33:30.010Z,998.30
2023-04-25T09:34:29.953Z,998.28
2023-04-25T09:35:29.970Z,998.32
2023-04-25T09:36:29.959Z,998.37
2023-04-25T09:37:29.956Z,998.33
2023-04-25T09:38:29.915Z,998.33
2023-04-25T09:39:29.899Z,998.31
2023-04-25T09:40:29.948Z,998.40
2023-04-25T09:41:29.875Z,998.37
2023-04-25T09:42:29.984Z,998.44
2023-04-25T09:43:29.890Z,998.41
2023-04-25T09:44:29.864Z,998.45
2023-04-25T09:45:29.856Z,998.45
2023-04-25T09:46:30.000Z,998.42
2023-04-25T09:47:29.835Z,998.39
2023-04-25T09:48:29.832Z,998.44
2023-04-25T09:49:29.816Z,998.48
2023-04-25T09:50:29.779Z,998.48
2023-04-25T09:51:29.774Z,998.43
2023-04-25T09:52:29.832Z,998.46
2023-04-25T09:53:29.810Z,998.48
2023-04-25T09:54:29.764Z,998.53
2023-04-25T09:55:29.791Z,998.55
2023-04-25T09:56:29.778Z,998.57
2023-04-25T09:57:29.728Z,998.53
2023-04-25T09:58:31.843Z,998.51
2023-04-25T09:59:29.684Z,998.46
2023-04-25T10:00:29.689Z,998.53
2023-04-25T10:01:29.728Z,998.53
2023-04-25T10:02:29.732Z,998.58
2023-04-25T10:03:30.015Z,998.59
2023-04-25T10:04:31.574Z,998.56
2023-04-25T10:05:29.677Z,998.57
2023-04-25T10:06:29.605Z,998.58
2023-04-25T10:07:29.601Z,998.57
2023-04-25T10:08:29.584Z,998.60
2023-04-25T10:09:29.734Z,998.60
2023-04-25T10:10:31.570Z,998.59
2023-04-25T10:11:29.567Z,998.65
2023-04-25T10:12:29.539Z,998.63
2023-04-25T10:13:29.537Z,998.66
2023-04-25T10:14:29.546Z,998.68
2023-04-25T10:15:29.588Z,998.70
2023-04-25T10:16:29.615Z,998.68
2023-04-25T10:17:29.659Z,998.74
2023-04-25T10:18:29.483Z,998.74
2023-04-25T10:19:29.485Z,998.78
2023-04-25T10:20:29.459Z,998.76
2023-04-25T10:21:29.501Z,998.75
2023-04-25T10:22:29.472Z,998.75
2023-04-25T10:23:29.424Z,998.74
2023-04-25T10:24:29.404Z,998.74
2023-04-25T10:25:29.441Z,998.76
2023-04-25T10:26:31.214Z,998.75
2023-04-25T10:27:29.418Z,998.77
2023-04-25T10:28:29.372Z,998.78
2023-04-25T10:29:29.384Z,998.74
2023-04-25T10:30:29.380Z,998.77
2023-04-25T10:31:29.412Z,998.79
2023-04-25T10:32:31.167Z,998.85
2023-04-25T10:33:29.327Z,998.81
2023-04-25T10:34:29.311Z,998.87
2023-04-25T10:35:29.306Z,998.86
2023-04-25T10:36:29.310Z,998.91
2023-04-25T10:37:29.309Z,998.95
2023-04-25T10:38:29.271Z,998.97
2023-04-25T10:39:29.256Z,998.95
2023-04-25T10:40:29.275Z,998.95
2023-04-25T10:41:29.247Z,998.93
2023-04-25T10:42:29.206Z,998.96
2023-04-25T10:43:29.233Z,999.02
2023-04-25T10:44:29.191Z,998.99
2023-04-25T10:45:29.218Z,998.97
2023-04-25T10:46:29.197Z,998.93
2023-04-25T10:47:29.182Z,999.00
2023-04-25T10:48:29.135Z,998.93
2023-04-25T10:49:29.150Z,998.94
2023-04-25T10:50:29.123Z,998.93
2023-04-25T10:51:34.556Z,998.94
2023-04-25T10:52:30.104Z,998.99
2023-04-25T10:53:29.108Z,998.99
2023-04-25T10:54:29.087Z,998.98
2023-04-25T10:55:29.097Z,999.02
2023-04-25T10:56:29.117Z,998.98
2023-04-25T10:57:29.174Z,998.98
2023-04-25T10:58:29.030Z,998.97
2023-04-25T10:59:29.047Z,998.92
2023-04-25T11:00:38.398Z,998.91
2023-04-25T11:01:30.181Z,998.94
2023-04-25T11:02:29.121Z,998.93
2023-04-25T11:03:29.132Z,998.91
2023-04-25T11:04:29.178Z,998.97
2023-04-25T11:05:29.014Z,998.96
2023-04-25T11:06:36.807Z,998.96
2023-04-25T11:07:28.947Z,998.96
2023-04-25T11:08:28.938Z,999.02
2023-04-25T11:09:28.925Z,999.02
2023-04-25T11:10:28.909Z,998.99
2023-04-25T11:11:28.893Z,999.00
2023-04-25T11:12:28.882Z,999.01
2023-04-25T11:13:28.891Z,998.98
2023-04-25T11:14:28.890Z,998.97
2023-04-25T11:15:28.890Z,999.03
2023-04-25T11:16:29.206Z,998.97
2023-04-25T11:17:28.923Z,998.96
2023-04-25T11:18:29.009Z,998.96
2023-04-25T11:19:28.821Z,998.95
2023-04-25T11:20:28.809Z,998.99
2023-04-25T11:21:28.908Z,998.96
2023-04-25T11:22:28.797Z,998.97
2023-04-25T11:23:28.832Z,998.98
2023-04-25T11:24:28.765Z,999.02
2023-04-25T11:25:28.749Z,999.05
2023-04-25T11:26:28.789Z,999.08
2023-04-25T11:27:28.737Z,999.00
2023-04-25T11:28:28.768Z,999.03
2023-04-25T11:29:28.756Z,998.92
2023-04-25T11:30:28.708Z,998.93
2023-04-25T11:31:28.741Z,998.93
2023-04-25T11:32:28.728Z,998.89
2023-04-25T11:33:28.746Z,998.95
2023-04-25T11:34:28.640Z,998.96
2023-04-25T11:35:28.761Z,998.93
2023-04-25T11:36:28.645Z,999.00
2023-04-25T11:37:28.630Z,998.98
2023-04-25T11:38:29.418Z,998.99
2023-04-25T11:39:28.608Z,998.97
2023-04-25T11:40:28.578Z,998.98
2023-04-25T11:41:28.664Z,998.98
2023-04-25T11:42:28.565Z,998.99
2023-04-25T11:43:28.551Z,999.03
2023-04-25T11:44:28.538Z,998.98
2023-04-25T11:45:28.578Z,998.96
2023-04-25T11:46:28.590Z,998.97
2023-04-25T11:47:28.653Z,998.97
2023-04-25T11:48:28.515Z,998.98
2023-04-25T11:49:28.924Z,998.94
2023-04-25T11:50:28.487Z,998.96
2023-04-25T11:51:28.504Z,998.97
2023-04-25T11:52:28.445Z,999.01
2023-04-25T11:53:28.556Z,998.99
2023-04-25T11:54:28.426Z,999.03
2023-04-25T11:55:28.430Z,999.08
2023-04-25T11:56:28.407Z,999.11
2023-04-25T11:57:28.383Z,999.09
2023-04-25T11:58:28.397Z,999.12
2023-04-25T11:59:28.440Z,999.14
2023-04-25T12:00:28.361Z,999.09
2023-04-25T12:01:29.783Z,999.13
2023-04-25T12:02:28.394Z,999.13
2023-04-25T12:03:28.489Z,999.23
2023-04-25T12:04:28.520Z,999.19
2023-04-25T12:05:32.709Z,999.20
2023-04-25T12:06:29.380Z,999.23
2023-04-25T12:07:28.280Z,999.20
2023-04-25T12:08:28.289Z,999.19
2023-04-25T12:09:28.271Z,999.18
2023-04-25T12:10:28.286Z,999.24
2023-04-25T12:11:28.299Z,999.22
2023-04-25T12:12:28.240Z,999.25
2023-04-25T12:13:28.228Z,999.29
2023-04-25T12:14:28.466Z,999.29
2023-04-25T12:15:28.192Z,999.27
2023-04-25T12:16:28.213Z,999.32
2023-04-25T12:17:28.284Z,999.28
2023-04-25T12:18:28.183Z,999.33
2023-04-25T12:19:28.145Z,999.30
2023-04-25T12:20:28.144Z,999.26
2023-04-25T12:21:28.126Z,999.29
2023-04-25T12:22:28.331Z,999.21
2023-04-25T12:23:28.189Z,999.25
2023-04-25T12:24:28.703Z,999.23
2023-04-25T12:25:28.105Z,999.26
2023-04-25T12:26:28.099Z,999.34
2023-04-25T12:27:28.068Z,999.34
2023-04-25T12:28:28.053Z,999.34
2023-04-25T12:29:31.762Z,999.29